UAE256 MMMX-LEBL
Flight info
| Callsign | UAE256 |
|---|---|
| Flight time | N/A |
| Altitude | 35000 |
| Route | IKLAN3B IKLAN UT140 TAM UM575 CLONN M575 WAHOO DCT HRV Q56 KELLN Q58 GLOVR DCT RDU DCT ORF DCT ZIBUT/M083F370 DCT DRYED DCT 40N060W 42N050W 4230N04000W 43N030W/M083F390 4330N02000W DCT RETEN/N0483F390 DCT STG DCT SUSOS DCT NUBLO DCT NEDUS DCT RATAS DCT DGO DCT VASUM DCT YAKXU DCT ELSAP/N0482F400 N725 LOBAR |
| Aircraft | B77L/H-SDE1E2E3FGHIJ2J3J4J5M1RWXY/LB1D1 |
Departure
| Time | 2026-05-04 00:45 |
|---|---|
| Airport | Mexico City Benito Juárez International Airport (MMMX) |
Arrival
| Time | N/A |
|---|---|
| Airport | Josep Tarradellas Barcelona-El Prat Airport (LEBL) |
| Time | Latitude | Longitude | Altitude | Speed | Heading |
|---|---|---|---|---|---|
| 2026-05-04 00:09 | 19.43553 | -99.08051 | 7307 ft | 0 kts | 330° |
| 2026-05-04 00:28 | 19.43533 | -99.08040 | 7303 ft | 4 kts | 340° |
| 2026-05-04 00:28 | 19.43507 | -99.08033 | 7307 ft | 4 kts | 355° |
| 2026-05-04 00:28 | 19.43480 | -99.08034 | 7307 ft | 4 kts | 14° |
| 2026-05-04 00:29 | 19.43456 | -99.08045 | 7307 ft | 4 kts | 45° |
| 2026-05-04 00:29 | 19.43450 | -99.08053 | 7307 ft | 0 kts | 59° |
| 2026-05-04 00:34 | 19.43475 | -99.08008 | 7307 ft | 17 kts | 59° |
| 2026-05-04 00:34 | 19.43563 | -99.07851 | 7309 ft | 22 kts | 59° |
| 2026-05-04 00:34 | 19.43639 | -99.07717 | 7307 ft | 21 kts | 59° |
| 2026-05-04 00:35 | 19.43714 | -99.07581 | 7307 ft | 21 kts | 59° |
| 2026-05-04 00:35 | 19.43791 | -99.07447 | 7307 ft | 21 kts | 58° |
| 2026-05-04 00:35 | 19.43875 | -99.07317 | 7307 ft | 21 kts | 63° |
| 2026-05-04 00:35 | 19.43945 | -99.07182 | 7307 ft | 21 kts | 58° |
| 2026-05-04 00:36 | 19.44016 | -99.07044 | 7307 ft | 21 kts | 57° |
| 2026-05-04 00:36 | 19.44090 | -99.06912 | 7307 ft | 20 kts | 60° |
| 2026-05-04 00:36 | 19.44162 | -99.06785 | 7307 ft | 20 kts | 59° |
| 2026-05-04 00:36 | 19.44235 | -99.06657 | 7307 ft | 20 kts | 59° |
| 2026-05-04 00:37 | 19.44307 | -99.06528 | 7307 ft | 20 kts | 59° |
| 2026-05-04 00:37 | 19.44367 | -99.06420 | 7307 ft | 16 kts | 59° |
| 2026-05-04 00:37 | 19.44411 | -99.06342 | 7307 ft | 11 kts | 61° |
| 2026-05-04 00:37 | 19.44420 | -99.06300 | 7307 ft | 0 kts | 91° |
| 2026-05-04 00:38 | 19.44419 | -99.06280 | 7307 ft | 7 kts | 95° |
| 2026-05-04 00:39 | 19.44393 | -99.06204 | 7307 ft | 16 kts | 114° |
| 2026-05-04 00:39 | 19.44347 | -99.06091 | 7307 ft | 15 kts | 112° |
| 2026-05-04 00:39 | 19.44318 | -99.06014 | 7307 ft | 7 kts | 112° |
| 2026-05-04 00:39 | 19.44314 | -99.06005 | 7307 ft | 0 kts | 112° |
| 2026-05-04 00:40 | 19.44310 | -99.05994 | 7307 ft | 7 kts | 112° |
| 2026-05-04 00:41 | 19.44277 | -99.05908 | 7307 ft | 14 kts | 112° |
| 2026-05-04 00:41 | 19.44238 | -99.05811 | 7308 ft | 14 kts | 112° |
| 2026-05-04 00:41 | 19.44201 | -99.05715 | 7307 ft | 14 kts | 112° |
| 2026-05-04 00:41 | 19.44180 | -99.05611 | 7307 ft | 15 kts | 80° |
| 2026-05-04 00:42 | 19.44231 | -99.05512 | 7307 ft | 15 kts | 59° |
| 2026-05-04 00:42 | 19.44285 | -99.05414 | 7307 ft | 15 kts | 60° |
| 2026-05-04 00:42 | 19.44338 | -99.05318 | 7307 ft | 15 kts | 59° |
| 2026-05-04 00:42 | 19.44375 | -99.05262 | 7307 ft | 8 kts | 39° |
| 2026-05-04 00:43 | 19.44430 | -99.05262 | 7307 ft | 8 kts | 339° |
| 2026-05-04 00:43 | 19.44481 | -99.05294 | 7307 ft | 8 kts | 320° |
| 2026-05-04 00:43 | 19.44512 | -99.05341 | 7309 ft | 6 kts | 282° |
| 2026-05-04 00:43 | 19.44503 | -99.05372 | 7309 ft | 0 kts | 238° |
| 2026-05-04 00:44 | 19.44464 | -99.05438 | 7307 ft | 36 kts | 238° |
| 2026-05-04 00:44 | 19.44207 | -99.05897 | 7307 ft | 109 kts | 239° |
| 2026-05-04 00:45 | 19.43703 | -99.06800 | 7307 ft | 174 kts | 239° |
| 2026-05-04 00:45 | 19.42979 | -99.08096 | 7312 ft | 225 kts | 238° |
| 2026-05-04 00:45 | 19.42153 | -99.09515 | 7956 ft | 217 kts | 239° |
| 2026-05-04 00:45 | 19.41434 | -99.10814 | 9049 ft | 198 kts | 239° |
| 2026-05-04 00:46 | 19.40738 | -99.12147 | 9212 ft | 218 kts | 239° |
| 2026-05-04 00:46 | 19.39947 | -99.13595 | 9362 ft | 234 kts | 239° |
| 2026-05-04 00:46 | 19.39135 | -99.15108 | 9833 ft | 237 kts | 240° |
| 2026-05-04 00:46 | 19.38343 | -99.16637 | 10297 ft | 243 kts | 240° |
| 2026-05-04 00:47 | 19.37519 | -99.18226 | 10788 ft | 248 kts | 242° |
| 2026-05-04 00:47 | 19.37024 | -99.20021 | 10978 ft | 262 kts | 270° |
| 2026-05-04 00:47 | 19.37472 | -99.21875 | 11506 ft | 265 kts | 298° |
| 2026-05-04 00:47 | 19.38603 | -99.23393 | 11937 ft | 268 kts | 319° |
| 2026-05-04 00:48 | 19.40104 | -99.24544 | 12591 ft | 262 kts | 324° |
| 2026-05-04 00:48 | 19.41539 | -99.25708 | 13220 ft | 261 kts | 320° |
| 2026-05-04 00:48 | 19.42972 | -99.26929 | 13691 ft | 266 kts | 321° |
| 2026-05-04 00:48 | 19.44439 | -99.28160 | 14179 ft | 270 kts | 322° |
| 2026-05-04 00:49 | 19.45898 | -99.29394 | 14663 ft | 273 kts | 322° |
| 2026-05-04 00:49 | 19.47390 | -99.30662 | 15116 ft | 276 kts | 321° |
| 2026-05-04 00:49 | 19.49026 | -99.31691 | 15500 ft | 277 kts | 347° |
| 2026-05-04 00:49 | 19.50992 | -99.31832 | 15650 ft | 291 kts | 1° |
| 2026-05-04 00:50 | 19.53064 | -99.31802 | 15795 ft | 311 kts | 359° |
| 2026-05-04 00:50 | 19.55307 | -99.31808 | 15943 ft | 331 kts | 359° |
| 2026-05-04 00:50 | 19.57690 | -99.31834 | 16032 ft | 353 kts | 358° |
| 2026-05-04 00:50 | 19.60218 | -99.31875 | 16155 ft | 371 kts | 358° |
| 2026-05-04 00:51 | 19.62841 | -99.31925 | 16280 ft | 390 kts | 358° |
| 2026-05-04 00:51 | 19.65611 | -99.31822 | 16355 ft | 403 kts | 9° |
| 2026-05-04 00:51 | 19.68375 | -99.31043 | 16713 ft | 413 kts | 16° |
| 2026-05-04 00:51 | 19.71097 | -99.30122 | 17341 ft | 417 kts | 17° |
| 2026-05-04 00:52 | 19.73877 | -99.29185 | 18042 ft | 419 kts | 16° |
| 2026-05-04 00:52 | 19.76677 | -99.28264 | 18676 ft | 421 kts | 16° |
| 2026-05-04 00:52 | 19.79495 | -99.27358 | 19214 ft | 423 kts | 15° |
| 2026-05-04 00:52 | 19.82306 | -99.26470 | 19703 ft | 427 kts | 15° |
| 2026-05-04 00:53 | 19.85169 | -99.25574 | 20208 ft | 430 kts | 15° |
| 2026-05-04 00:53 | 19.88062 | -99.24672 | 20717 ft | 433 kts | 15° |
| 2026-05-04 00:53 | 19.90939 | -99.23774 | 21162 ft | 436 kts | 14° |
| 2026-05-04 00:53 | 19.93860 | -99.22858 | 21165 ft | 437 kts | 14° |
| 2026-05-04 00:54 | 19.96797 | -99.21944 | 21571 ft | 440 kts | 14° |
| 2026-05-04 00:54 | 19.99718 | -99.21038 | 22059 ft | 442 kts | 14° |
| 2026-05-04 00:54 | 20.02680 | -99.20116 | 22560 ft | 443 kts | 14° |
| 2026-05-04 00:54 | 20.05659 | -99.19181 | 23018 ft | 446 kts | 14° |
| 2026-05-04 00:55 | 20.08620 | -99.18251 | 23477 ft | 448 kts | 14° |
| 2026-05-04 00:55 | 20.11634 | -99.17307 | 23887 ft | 451 kts | 14° |
| 2026-05-04 00:55 | 20.14654 | -99.16362 | 24253 ft | 453 kts | 14° |
| 2026-05-04 00:55 | 20.17663 | -99.15420 | 24623 ft | 455 kts | 14° |
| 2026-05-04 00:56 | 20.20711 | -99.14465 | 24991 ft | 457 kts | 14° |
| 2026-05-04 00:56 | 20.23719 | -99.13334 | 25255 ft | 461 kts | 24° |
| 2026-05-04 00:56 | 20.26392 | -99.11371 | 25450 ft | 473 kts | 41° |
| 2026-05-04 00:56 | 20.28479 | -99.08695 | 25774 ft | 475 kts | 50° |
| 2026-05-04 00:57 | 20.30505 | -99.05887 | 26021 ft | 479 kts | 48° |
| 2026-05-04 00:57 | 20.32610 | -99.03100 | 26331 ft | 482 kts | 47° |
| 2026-05-04 00:57 | 20.34745 | -99.00330 | 26709 ft | 483 kts | 47° |
| 2026-05-04 00:57 | 20.36860 | -98.97599 | 27087 ft | 484 kts | 47° |
| 2026-05-04 00:58 | 20.39016 | -98.94809 | 27451 ft | 487 kts | 47° |
| 2026-05-04 00:58 | 20.41176 | -98.92004 | 27798 ft | 489 kts | 47° |
| 2026-05-04 00:58 | 20.43402 | -98.89311 | 28066 ft | 488 kts | 39° |
| 2026-05-04 00:58 | 20.46151 | -98.87249 | 28285 ft | 479 kts | 24° |
| 2026-05-04 00:59 | 20.49176 | -98.85694 | 28482 ft | 483 kts | 22° |
| 2026-05-04 00:59 | 20.52230 | -98.84138 | 28755 ft | 485 kts | 22° |
| 2026-05-04 00:59 | 20.55240 | -98.82577 | 29071 ft | 487 kts | 23° |
| 2026-05-04 01:00 | 20.61348 | -98.79312 | 29143 ft | 489 kts | 24° |
| 2026-05-04 01:00 | 20.67348 | -98.76028 | 29159 ft | 487 kts | 24° |
| 2026-05-04 01:01 | 20.73392 | -98.72705 | 29309 ft | 489 kts | 24° |
| 2026-05-04 01:01 | 20.76426 | -98.71038 | 29620 ft | 491 kts | 24° |
| 2026-05-04 01:01 | 20.79477 | -98.69361 | 29903 ft | 492 kts | 24° |
| 2026-05-04 01:01 | 20.82496 | -98.67702 | 30267 ft | 492 kts | 24° |
| 2026-05-04 01:02 | 20.85539 | -98.66029 | 30644 ft | 491 kts | 23° |
| 2026-05-04 01:02 | 20.88580 | -98.64357 | 31004 ft | 490 kts | 23° |
| 2026-05-04 01:02 | 20.91621 | -98.62685 | 31304 ft | 490 kts | 23° |
| 2026-05-04 01:02 | 20.94628 | -98.61031 | 31611 ft | 490 kts | 23° |
| 2026-05-04 01:03 | 20.97670 | -98.59356 | 31954 ft | 490 kts | 23° |
| 2026-05-04 01:03 | 21.00708 | -98.57684 | 32310 ft | 489 kts | 23° |
| 2026-05-04 01:03 | 21.03701 | -98.56035 | 32672 ft | 489 kts | 22° |
| 2026-05-04 01:03 | 21.06732 | -98.54365 | 32992 ft | 489 kts | 22° |
| 2026-05-04 01:04 | 21.09767 | -98.52691 | 33338 ft | 488 kts | 22° |
| 2026-05-04 01:04 | 21.12756 | -98.51042 | 33708 ft | 487 kts | 22° |
| 2026-05-04 01:04 | 21.15770 | -98.49378 | 34058 ft | 487 kts | 22° |
| 2026-05-04 01:04 | 21.18792 | -98.47709 | 34328 ft | 486 kts | 22° |
| 2026-05-04 01:05 | 21.21806 | -98.46045 | 34539 ft | 487 kts | 22° |
| 2026-05-04 01:05 | 21.24835 | -98.44373 | 34748 ft | 489 kts | 22° |
| 2026-05-04 01:05 | 21.27835 | -98.42714 | 34965 ft | 490 kts | 22° |
| 2026-05-04 01:06 | 21.33951 | -98.39332 | 35064 ft | 495 kts | 22° |
| 2026-05-04 01:06 | 21.40015 | -98.35970 | 35084 ft | 491 kts | 22° |
| 2026-05-04 01:07 | 21.46069 | -98.32610 | 35097 ft | 488 kts | 22° |
| 2026-05-04 01:07 | 21.52069 | -98.29281 | 35095 ft | 486 kts | 22° |
| 2026-05-04 01:08 | 21.57076 | -98.26501 | 35092 ft | 485 kts | 22° |
| 2026-05-04 01:08 | 21.63057 | -98.23178 | 35101 ft | 485 kts | 22° |
| 2026-05-04 01:09 | 21.69093 | -98.19820 | 35092 ft | 486 kts | 22° |
| 2026-05-04 01:09 | 21.75078 | -98.16486 | 35088 ft | 486 kts | 22° |
| 2026-05-04 01:10 | 21.81103 | -98.13128 | 35091 ft | 487 kts | 22° |
| 2026-05-04 01:10 | 21.87095 | -98.09784 | 35086 ft | 487 kts | 22° |
| 2026-05-04 01:11 | 21.93101 | -98.06429 | 35082 ft | 488 kts | 22° |
| 2026-05-04 01:11 | 21.99147 | -98.03049 | 35091 ft | 488 kts | 21° |
| 2026-05-04 01:12 | 22.05188 | -97.99668 | 35092 ft | 488 kts | 22° |
| 2026-05-04 01:12 | 22.11194 | -97.96301 | 35089 ft | 488 kts | 21° |
| 2026-05-04 01:13 | 22.17220 | -97.92922 | 35087 ft | 487 kts | 21° |
| 2026-05-04 01:13 | 22.23207 | -97.89559 | 35093 ft | 487 kts | 21° |
| 2026-05-04 01:14 | 22.29231 | -97.86151 | 35104 ft | 488 kts | 23° |
| 2026-05-04 01:14 | 22.35010 | -97.82287 | 35087 ft | 490 kts | 26° |
| 2026-05-04 01:15 | 22.40765 | -97.78321 | 35085 ft | 489 kts | 26° |
| 2026-05-04 01:15 | 22.46495 | -97.74397 | 35092 ft | 488 kts | 26° |
| 2026-05-04 01:16 | 22.52228 | -97.70486 | 35081 ft | 488 kts | 26° |
| 2026-05-04 01:16 | 22.57952 | -97.66576 | 35083 ft | 487 kts | 26° |
| 2026-05-04 01:17 | 22.63702 | -97.62646 | 35094 ft | 487 kts | 26° |
| 2026-05-04 01:17 | 22.69407 | -97.58743 | 35091 ft | 487 kts | 26° |
| 2026-05-04 01:18 | 22.75150 | -97.54808 | 35083 ft | 487 kts | 26° |
| 2026-05-04 01:18 | 22.80855 | -97.50892 | 35085 ft | 487 kts | 26° |
| 2026-05-04 01:19 | 22.86589 | -97.46953 | 35087 ft | 486 kts | 26° |
| 2026-05-04 01:19 | 22.92287 | -97.43034 | 35082 ft | 486 kts | 26° |
| 2026-05-04 01:20 | 22.97987 | -97.39108 | 35090 ft | 486 kts | 26° |
| 2026-05-04 01:20 | 23.03711 | -97.35162 | 35085 ft | 486 kts | 26° |
| 2026-05-04 01:21 | 23.09394 | -97.31239 | 35085 ft | 486 kts | 26° |
| 2026-05-04 01:21 | 23.15126 | -97.27280 | 35083 ft | 486 kts | 26° |
| 2026-05-04 01:22 | 23.20807 | -97.23348 | 35088 ft | 486 kts | 26° |
| 2026-05-04 01:22 | 23.26523 | -97.19380 | 35111 ft | 486 kts | 26° |
| 2026-05-04 01:23 | 23.32199 | -97.15442 | 35093 ft | 486 kts | 25° |
| 2026-05-04 01:23 | 23.37931 | -97.11475 | 35089 ft | 486 kts | 25° |
| 2026-05-04 01:24 | 23.43605 | -97.07541 | 35089 ft | 486 kts | 25° |
| 2026-05-04 01:24 | 23.49331 | -97.03563 | 35092 ft | 485 kts | 25° |
| 2026-05-04 01:25 | 23.55000 | -96.99620 | 35091 ft | 485 kts | 25° |
| 2026-05-04 01:25 | 23.60698 | -96.95651 | 35115 ft | 485 kts | 25° |
| 2026-05-04 01:26 | 23.66359 | -96.91704 | 35088 ft | 485 kts | 25° |
| 2026-05-04 01:26 | 23.72068 | -96.87723 | 35081 ft | 484 kts | 25° |
| 2026-05-04 01:27 | 23.77723 | -96.83776 | 35077 ft | 484 kts | 25° |
| 2026-05-04 01:27 | 23.83410 | -96.79797 | 35089 ft | 484 kts | 25° |
| 2026-05-04 01:28 | 23.89058 | -96.75839 | 35077 ft | 484 kts | 25° |
| 2026-05-04 01:28 | 23.94746 | -96.71850 | 35091 ft | 485 kts | 25° |
| 2026-05-04 01:29 | 24.00399 | -96.67879 | 35087 ft | 485 kts | 25° |
| 2026-05-04 01:29 | 24.06062 | -96.63900 | 35084 ft | 485 kts | 25° |
| 2026-05-04 01:30 | 24.11756 | -96.59898 | 35085 ft | 485 kts | 25° |
| 2026-05-04 01:30 | 24.17405 | -96.55922 | 35088 ft | 484 kts | 25° |
| 2026-05-04 01:31 | 24.23079 | -96.51921 | 35086 ft | 484 kts | 25° |
| 2026-05-04 01:31 | 24.28735 | -96.47928 | 35089 ft | 485 kts | 25° |
| 2026-05-04 01:32 | 24.34419 | -96.43912 | 35085 ft | 485 kts | 25° |
| 2026-05-04 01:32 | 24.40076 | -96.39909 | 35089 ft | 486 kts | 25° |
| 2026-05-04 01:33 | 24.45779 | -96.35868 | 35090 ft | 486 kts | 25° |
| 2026-05-04 01:33 | 24.51439 | -96.31854 | 35090 ft | 487 kts | 25° |
| 2026-05-04 01:34 | 24.57141 | -96.27805 | 35085 ft | 487 kts | 25° |
| 2026-05-04 01:34 | 24.62845 | -96.23749 | 35088 ft | 487 kts | 25° |
| 2026-05-04 01:35 | 24.68518 | -96.19717 | 35090 ft | 487 kts | 25° |
| 2026-05-04 01:35 | 24.74194 | -96.15685 | 35089 ft | 487 kts | 25° |
| 2026-05-04 01:36 | 24.79912 | -96.11616 | 35090 ft | 487 kts | 25° |
| 2026-05-04 01:36 | 24.85612 | -96.07552 | 35090 ft | 487 kts | 25° |
| 2026-05-04 01:37 | 24.91277 | -96.03508 | 35108 ft | 488 kts | 25° |
| 2026-05-04 01:37 | 24.96962 | -95.99447 | 35097 ft | 488 kts | 25° |
| 2026-05-04 01:38 | 25.02671 | -95.95368 | 35089 ft | 488 kts | 25° |
| 2026-05-04 01:38 | 25.08376 | -95.91288 | 35096 ft | 488 kts | 25° |
| 2026-05-04 01:39 | 25.14046 | -95.87223 | 35097 ft | 487 kts | 25° |
| 2026-05-04 01:39 | 25.19709 | -95.83158 | 35094 ft | 487 kts | 25° |
| 2026-05-04 01:40 | 25.25417 | -95.79055 | 35098 ft | 488 kts | 25° |
| 2026-05-04 01:40 | 25.31075 | -95.74982 | 35101 ft | 487 kts | 25° |
| 2026-05-04 01:41 | 25.36767 | -95.70883 | 35103 ft | 487 kts | 25° |
| 2026-05-04 01:41 | 25.42415 | -95.66811 | 35096 ft | 487 kts | 25° |
| 2026-05-04 01:42 | 25.48106 | -95.62701 | 35099 ft | 487 kts | 25° |
| 2026-05-04 01:42 | 25.53758 | -95.58614 | 35131 ft | 487 kts | 25° |
| 2026-05-04 01:43 | 25.59453 | -95.54492 | 35110 ft | 488 kts | 25° |
| 2026-05-04 01:43 | 25.64948 | -95.50020 | 35095 ft | 498 kts | 34° |
| 2026-05-04 01:44 | 25.69889 | -95.44599 | 35105 ft | 502 kts | 37° |
| 2026-05-04 01:44 | 25.74813 | -95.39068 | 35107 ft | 502 kts | 37° |
| 2026-05-04 01:45 | 25.79723 | -95.33595 | 35104 ft | 502 kts | 37° |
| 2026-05-04 01:45 | 25.87171 | -95.25347 | 35123 ft | 503 kts | 37° |
| 2026-05-04 01:46 | 25.92111 | -95.19876 | 35107 ft | 503 kts | 37° |
| 2026-05-04 01:46 | 25.97075 | -95.14369 | 35102 ft | 503 kts | 37° |
| 2026-05-04 01:47 | 26.02007 | -95.08887 | 35104 ft | 503 kts | 37° |
| 2026-05-04 01:47 | 26.06975 | -95.03359 | 35105 ft | 503 kts | 37° |
| 2026-05-04 01:48 | 26.11900 | -94.97874 | 35104 ft | 503 kts | 37° |
| 2026-05-04 01:48 | 26.16854 | -94.92347 | 35114 ft | 503 kts | 37° |
| 2026-05-04 01:49 | 26.21804 | -94.86817 | 35116 ft | 504 kts | 36° |
| 2026-05-04 01:49 | 26.26725 | -94.81312 | 35113 ft | 503 kts | 36° |
| 2026-05-04 01:50 | 26.31677 | -94.75767 | 35113 ft | 503 kts | 37° |
| 2026-05-04 01:50 | 26.36591 | -94.70256 | 35110 ft | 502 kts | 37° |
| 2026-05-04 01:51 | 26.41524 | -94.64717 | 35106 ft | 502 kts | 37° |
| 2026-05-04 01:51 | 26.46423 | -94.59211 | 35116 ft | 501 kts | 37° |
| 2026-05-04 01:52 | 26.51345 | -94.53670 | 35121 ft | 502 kts | 36° |
| 2026-05-04 01:52 | 26.56231 | -94.48164 | 35123 ft | 502 kts | 36° |
| 2026-05-04 01:53 | 26.61158 | -94.42605 | 35116 ft | 502 kts | 36° |
| 2026-05-04 01:53 | 26.66042 | -94.37084 | 35121 ft | 502 kts | 36° |
| 2026-05-04 01:54 | 26.70963 | -94.31517 | 35122 ft | 502 kts | 36° |
| 2026-05-04 01:54 | 26.75051 | -94.26885 | 35122 ft | 502 kts | 37° |
| 2026-05-04 01:55 | 26.79943 | -94.21336 | 35122 ft | 502 kts | 37° |
| 2026-05-04 01:55 | 26.84868 | -94.15742 | 35125 ft | 504 kts | 36° |
| 2026-05-04 01:56 | 26.89770 | -94.10167 | 35132 ft | 504 kts | 36° |
| 2026-05-04 01:56 | 26.94695 | -94.04557 | 35130 ft | 504 kts | 36° |
| 2026-05-04 01:57 | 26.99593 | -93.98970 | 35126 ft | 504 kts | 36° |
| 2026-05-04 01:57 | 27.04515 | -93.93348 | 35129 ft | 504 kts | 36° |
| 2026-05-04 01:58 | 27.09408 | -93.87757 | 35127 ft | 504 kts | 36° |
| 2026-05-04 01:58 | 27.14338 | -93.82122 | 35138 ft | 504 kts | 36° |
| 2026-05-04 01:59 | 27.19223 | -93.76533 | 35137 ft | 504 kts | 36° |
| 2026-05-04 01:59 | 27.24140 | -93.70894 | 35133 ft | 505 kts | 36° |
| 2026-05-04 02:00 | 27.29059 | -93.65243 | 35131 ft | 505 kts | 36° |
| 2026-05-04 02:00 | 27.33982 | -93.59582 | 35135 ft | 504 kts | 36° |
| 2026-05-04 02:01 | 27.38862 | -93.53963 | 35132 ft | 504 kts | 36° |
| 2026-05-04 02:01 | 27.43747 | -93.48328 | 35172 ft | 504 kts | 36° |
| 2026-05-04 02:02 | 27.48670 | -93.42643 | 35141 ft | 505 kts | 36° |
| 2026-05-04 02:02 | 27.53557 | -93.36990 | 35136 ft | 506 kts | 36° |
| 2026-05-04 02:03 | 27.58483 | -93.31286 | 35138 ft | 506 kts | 36° |
| 2026-05-04 02:03 | 27.63371 | -93.25615 | 35136 ft | 506 kts | 36° |
| 2026-05-04 02:04 | 27.68273 | -93.19923 | 35142 ft | 506 kts | 36° |
| 2026-05-04 02:04 | 27.73197 | -93.14207 | 35141 ft | 507 kts | 36° |
| 2026-05-04 02:05 | 27.78095 | -93.08512 | 35139 ft | 507 kts | 36° |
| 2026-05-04 02:05 | 27.83018 | -93.02776 | 35154 ft | 507 kts | 36° |
| 2026-05-04 02:06 | 27.87907 | -92.97068 | 35126 ft | 507 kts | 36° |
| 2026-05-04 02:06 | 27.92820 | -92.91325 | 35146 ft | 507 kts | 36° |
| 2026-05-04 02:07 | 27.97693 | -92.85621 | 35148 ft | 506 kts | 36° |
| 2026-05-04 02:07 | 28.02598 | -92.79870 | 35130 ft | 506 kts | 36° |
| 2026-05-04 02:08 | 28.07502 | -92.74112 | 35149 ft | 507 kts | 36° |
| 2026-05-04 02:08 | 28.12376 | -92.68384 | 35145 ft | 506 kts | 36° |
| 2026-05-04 02:09 | 28.17249 | -92.62648 | 35158 ft | 506 kts | 36° |
| 2026-05-04 02:09 | 28.22133 | -92.56891 | 35147 ft | 506 kts | 36° |
| 2026-05-04 02:10 | 28.26819 | -92.50916 | 35142 ft | 515 kts | 44° |
| 2026-05-04 02:10 | 28.31078 | -92.44336 | 35147 ft | 516 kts | 45° |
| 2026-05-04 02:11 | 28.35294 | -92.37729 | 35181 ft | 516 kts | 44° |
| 2026-05-04 02:11 | 28.39510 | -92.31173 | 35156 ft | 516 kts | 44° |
| 2026-05-04 02:12 | 28.43770 | -92.24585 | 35146 ft | 516 kts | 44° |
| 2026-05-04 02:12 | 28.47991 | -92.18060 | 35150 ft | 515 kts | 44° |
| 2026-05-04 02:13 | 28.52233 | -92.11491 | 35147 ft | 515 kts | 44° |
| 2026-05-04 02:13 | 28.56469 | -92.04920 | 35151 ft | 514 kts | 44° |
| 2026-05-04 02:14 | 28.60706 | -91.98332 | 35151 ft | 514 kts | 44° |
| 2026-05-04 02:14 | 28.64911 | -91.91782 | 35148 ft | 515 kts | 44° |
| 2026-05-04 02:15 | 28.69154 | -91.85169 | 35157 ft | 516 kts | 44° |
| 2026-05-04 02:15 | 28.73365 | -91.78591 | 35155 ft | 516 kts | 44° |